createdAt,value
2018-05-21T00:00:17.222Z,0.00
2018-05-21T00:01:17.250Z,0.00
2018-05-21T00:02:17.107Z,0.00
2018-05-21T00:03:17.047Z,0.00
2018-05-21T00:04:16.905Z,0.00
2018-05-21T00:05:16.962Z,0.00
2018-05-21T00:06:16.745Z,0.00
2018-05-21T00:07:16.811Z,0.00
2018-05-21T00:08:16.592Z,0.00
2018-05-21T00:09:16.572Z,0.00
2018-05-21T00:10:16.448Z,0.00
2018-05-21T00:11:16.390Z,0.00
2018-05-21T00:12:16.398Z,0.00
2018-05-21T00:13:16.294Z,0.00
2018-05-21T00:14:16.115Z,0.00
2018-05-21T00:15:16.102Z,0.00
2018-05-21T00:16:15.970Z,0.00
2018-05-21T00:17:15.940Z,0.00
2018-05-21T00:18:15.814Z,0.00
2018-05-21T00:19:15.853Z,0.00
2018-05-21T00:20:15.648Z,0.00
2018-05-21T00:21:15.631Z,0.00
2018-05-21T00:22:15.505Z,0.00
2018-05-21T00:23:15.476Z,0.00
2018-05-21T00:24:15.368Z,0.00
2018-05-21T00:25:15.366Z,0.00
2018-05-21T00:26:15.221Z,0.00
2018-05-21T00:27:15.163Z,0.00
2018-05-21T00:28:15.043Z,0.00
2018-05-21T00:29:15.074Z,0.00
2018-05-21T00:30:14.886Z,0.00
2018-05-21T00:31:14.878Z,0.00
2018-05-21T00:32:14.709Z,0.00
2018-05-21T00:33:14.725Z,0.00
2018-05-21T00:34:14.560Z,0.00
2018-05-21T00:35:14.618Z,0.00
2018-05-21T00:36:14.393Z,0.00
2018-05-21T00:37:14.408Z,0.00
2018-05-21T00:38:14.246Z,0.00
2018-05-21T00:39:14.244Z,0.00
2018-05-21T00:40:14.080Z,0.00
2018-05-21T00:41:14.127Z,0.00
2018-05-21T00:42:13.932Z,0.00
2018-05-21T00:43:13.941Z,0.00
2018-05-21T00:44:13.803Z,0.00
2018-05-21T00:45:13.743Z,0.00
2018-05-21T00:46:13.622Z,0.00
2018-05-21T00:47:13.655Z,0.00
2018-05-21T00:48:13.451Z,0.00
2018-05-21T00:49:14.519Z,0.00
2018-05-21T00:50:13.290Z,0.00
2018-05-21T00:51:13.274Z,0.00
2018-05-21T00:52:13.131Z,0.00
2018-05-21T00:53:13.178Z,0.00
2018-05-21T00:54:12.987Z,0.00
2018-05-21T00:55:13.025Z,0.00
2018-05-21T00:56:12.821Z,0.00
2018-05-21T00:57:12.806Z,0.00
2018-05-21T00:58:12.665Z,0.00
2018-05-21T00:59:12.727Z,0.00
2018-05-21T01:00:12.523Z,0.00
2018-05-21T01:01:12.521Z,0.00
2018-05-21T01:02:12.347Z,0.00
2018-05-21T01:04:54.516Z,0.00
2018-05-21T01:05:54.466Z,0.00
2018-05-21T01:06:54.327Z,0.00
2018-05-21T01:09:36.478Z,0.00
2018-05-21T01:10:36.437Z,0.00
2018-05-21T01:11:36.342Z,0.00
2018-05-21T01:14:18.475Z,0.00
2018-05-21T01:15:18.447Z,0.00
2018-05-21T01:16:18.345Z,0.00
2018-05-21T01:19:00.473Z,0.00
2018-05-21T01:20:21.396Z,0.00
2018-05-21T01:21:01.472Z,0.00
2018-05-21T01:22:00.236Z,0.00
2018-05-21T01:23:00.269Z,0.00
2018-05-21T01:24:00.087Z,0.00
2018-05-21T01:25:00.079Z,0.00
2018-05-21T01:25:59.957Z,0.00
2018-05-21T01:26:59.897Z,0.00
2018-05-21T01:27:59.765Z,0.00
2018-05-21T01:28:59.794Z,0.00
2018-05-21T01:29:59.614Z,0.00
2018-05-21T01:30:59.649Z,0.00
2018-05-21T01:31:59.455Z,0.00
2018-05-21T01:32:59.419Z,0.00
2018-05-21T01:33:59.301Z,0.00
2018-05-21T01:36:41.506Z,0.00
2018-05-21T01:37:41.536Z,0.00
2018-05-21T01:38:41.332Z,0.00
2018-05-21T01:39:41.342Z,0.00
2018-05-21T01:40:41.170Z,0.00
2018-05-21T01:41:41.180Z,0.00
2018-05-21T01:42:41.013Z,0.00
2018-05-21T01:45:22.989Z,0.00
2018-05-21T01:46:22.979Z,0.00
2018-05-21T01:47:22.877Z,0.00
2018-05-21T01:48:22.866Z,0.00
2018-05-21T01:49:22.668Z,0.00
2018-05-21T01:50:22.675Z,0.00
2018-05-21T01:51:22.514Z,0.00
2018-05-21T01:52:22.516Z,0.00
2018-05-21T01:53:22.352Z,0.00
2018-05-21T01:54:22.389Z,0.00
2018-05-21T01:55:22.276Z,0.00
2018-05-21T01:56:22.202Z,0.00
2018-05-21T01:57:22.051Z,0.00
2018-05-21T01:58:22.005Z,0.00
2018-05-21T01:59:22.108Z,0.00
2018-05-21T02:00:21.916Z,0.00
2018-05-21T02:01:21.721Z,0.00
2018-05-21T02:02:21.770Z,0.00
2018-05-21T02:03:21.563Z,0.00
2018-05-21T02:04:21.533Z,0.00
2018-05-21T02:05:21.405Z,0.00
2018-05-21T02:06:21.447Z,0.00
2018-05-21T02:07:21.274Z,0.00
2018-05-21T02:08:21.352Z,0.00
2018-05-21T02:09:21.101Z,0.00
2018-05-21T02:10:21.058Z,0.00
2018-05-21T02:11:20.936Z,0.00
2018-05-21T02:12:20.971Z,0.00
2018-05-21T02:13:20.785Z,0.00
2018-05-21T02:14:20.782Z,0.00
2018-05-21T02:15:20.629Z,0.00
2018-05-21T02:16:20.585Z,0.00
2018-05-21T02:17:20.481Z,0.00
2018-05-21T02:18:20.502Z,0.00
2018-05-21T02:19:20.294Z,0.00
2018-05-21T02:22:02.508Z,0.00
2018-05-21T02:23:02.540Z,0.00
2018-05-21T02:24:02.340Z,0.00
2018-05-21T02:25:02.316Z,0.00
2018-05-21T02:26:02.175Z,0.00
2018-05-21T02:27:02.194Z,0.00
2018-05-21T02:28:02.053Z,0.00
2018-05-21T02:29:02.039Z,0.00
2018-05-21T02:30:01.860Z,0.00
2018-05-21T02:31:01.853Z,0.00
2018-05-21T02:32:01.716Z,0.00
2018-05-21T02:33:01.685Z,0.00
2018-05-21T02:34:01.552Z,0.00
2018-05-21T02:35:01.569Z,0.00
2018-05-21T02:36:01.389Z,0.00
2018-05-21T02:37:01.378Z,0.00
2018-05-21T02:38:01.261Z,0.00
2018-05-21T02:40:43.496Z,0.00
2018-05-21T02:41:43.424Z,0.00
2018-05-21T02:42:43.332Z,0.00
2018-05-21T02:43:43.338Z,0.00
2018-05-21T02:44:43.181Z,0.00
2018-05-21T02:45:43.206Z,0.00
2018-05-21T02:46:43.023Z,0.00
2018-05-21T02:47:43.014Z,0.00
2018-05-21T02:48:42.887Z,0.00
2018-05-21T02:49:42.827Z,0.00
2018-05-21T02:50:42.707Z,0.00
2018-05-21T02:51:42.763Z,0.00
2018-05-21T02:52:42.560Z,0.00
2018-05-21T02:53:42.571Z,0.00
2018-05-21T02:54:42.388Z,0.00
2018-05-21T02:55:42.356Z,0.00
2018-05-21T02:56:42.232Z,0.00
2018-05-21T02:57:42.263Z,0.00
2018-05-21T02:58:42.092Z,4.00
2018-05-21T02:59:42.114Z,4.00
2018-05-21T03:00:41.922Z,4.00
2018-05-21T03:01:41.882Z,0.00
2018-05-21T03:02:41.757Z,4.00
2018-05-21T03:03:41.803Z,4.00
2018-05-21T03:04:41.618Z,4.00
2018-05-21T03:05:41.600Z,4.00
2018-05-21T03:06:41.444Z,4.00
2018-05-21T03:07:41.419Z,8.00
2018-05-21T03:08:41.288Z,8.00
2018-05-21T03:09:41.267Z,8.00
2018-05-21T03:10:41.122Z,12.00
2018-05-21T03:11:41.129Z,12.00
2018-05-21T03:12:40.971Z,16.00
2018-05-21T03:13:40.937Z,16.00
2018-05-21T03:14:40.840Z,20.00
2018-05-21T03:15:40.845Z,24.00
2018-05-21T03:16:40.652Z,24.00
2018-05-21T03:17:40.655Z,28.00
2018-05-21T03:18:40.488Z,32.00
2018-05-21T03:19:40.467Z,36.00
2018-05-21T03:20:40.359Z,40.00
2018-05-21T03:21:40.380Z,44.00
2018-05-21T03:22:40.179Z,52.00
2018-05-21T03:23:40.183Z,56.00
2018-05-21T03:24:40.058Z,60.00
2018-05-21T03:25:39.985Z,68.00
2018-05-21T03:26:39.854Z,76.00
2018-05-21T03:27:39.911Z,84.00
2018-05-21T03:28:39.700Z,96.00
2018-05-21T03:29:39.750Z,104.00
2018-05-21T03:30:39.559Z,120.00
2018-05-21T03:31:39.524Z,136.00
2018-05-21T03:32:39.379Z,156.00
2018-05-21T03:35:21.521Z,228.00
2018-05-21T03:36:21.564Z,260.00
2018-05-21T03:37:21.344Z,300.00
2018-05-21T03:38:21.277Z,344.00
2018-05-21T03:39:21.196Z,388.00
2018-05-21T03:42:03.036Z,496.00
2018-05-21T03:43:03.045Z,532.00
2018-05-21T03:44:02.854Z,572.00
2018-05-21T03:45:02.850Z,616.00
2018-05-21T03:46:02.723Z,656.00
2018-05-21T03:47:02.663Z,692.00
2018-05-21T03:48:02.533Z,736.00
2018-05-21T03:49:02.578Z,772.00
2018-05-21T03:50:02.375Z,800.00
2018-05-21T03:51:02.412Z,800.00
2018-05-21T03:52:02.216Z,792.00
2018-05-21T03:53:02.193Z,796.00
2018-05-21T03:54:02.070Z,796.00
2018-05-21T03:55:02.098Z,796.00
2018-05-21T03:56:01.908Z,800.00
2018-05-21T03:57:01.977Z,804.00
2018-05-21T04:10:25.067Z,1152.00
2018-05-21T04:11:24.853Z,1196.00
2018-05-21T04:12:24.865Z,1252.00
2018-05-21T04:13:24.696Z,1324.00
2018-05-21T04:14:24.663Z,1392.00
2018-05-21T04:15:24.563Z,1476.00
2018-05-21T04:18:06.556Z,1748.00
2018-05-21T04:19:06.559Z,1876.00
2018-05-21T04:20:06.366Z,2004.00
2018-05-21T04:21:06.363Z,2124.00
2018-05-21T04:22:06.204Z,2272.00
2018-05-21T04:23:06.199Z,2472.00
2018-05-21T04:24:06.041Z,2692.00
2018-05-21T04:25:06.086Z,2932.00
2018-05-21T04:26:05.888Z,3180.00
2018-05-21T04:27:05.896Z,3320.00
2018-05-21T04:28:05.747Z,3304.00
2018-05-21T04:29:05.701Z,3276.00
2018-05-21T04:30:05.569Z,3432.00
2018-05-21T04:31:05.617Z,3584.00
2018-05-21T04:32:05.421Z,3692.00
2018-05-21T04:33:05.456Z,3808.00
2018-05-21T04:34:05.260Z,4016.00
2018-05-21T04:35:05.242Z,4224.00
2018-05-21T04:36:05.098Z,4276.00
2018-05-21T04:37:05.156Z,4064.00
2018-05-21T04:38:05.067Z,3616.00
2018-05-21T04:39:04.985Z,3252.00
2018-05-21T04:40:04.780Z,3228.00
2018-05-21T04:41:04.758Z,3324.00
2018-05-21T04:42:04.632Z,3432.00
2018-05-21T04:43:04.665Z,3504.00
2018-05-21T04:44:04.498Z,3536.00
2018-05-21T04:45:04.482Z,3544.00
2018-05-21T04:46:04.307Z,3576.00
2018-05-21T04:47:04.292Z,3452.00
2018-05-21T04:48:04.148Z,3268.00
2018-05-21T04:49:04.233Z,3128.00
2018-05-21T04:50:03.990Z,3080.00
2018-05-21T04:51:04.003Z,3184.00
2018-05-21T04:52:03.835Z,3360.00
2018-05-21T04:53:03.814Z,3588.00
2018-05-21T04:54:03.678Z,3828.00
2018-05-21T04:55:03.653Z,4092.00
2018-05-21T04:56:03.516Z,4372.00
2018-05-21T04:58:45.532Z,4696.00
2018-05-21T04:59:45.559Z,4692.00
2018-05-21T05:00:45.370Z,4740.00
2018-05-21T05:01:45.334Z,4816.00
2018-05-21T05:02:45.211Z,4900.00
2018-05-21T05:03:45.244Z,4980.00
2018-05-21T05:04:45.076Z,5056.00
2018-05-21T05:05:45.053Z,5112.00
2018-05-21T05:06:44.897Z,5196.00
2018-05-21T05:07:44.860Z,5172.00
2018-05-21T05:08:44.739Z,5056.00
2018-05-21T05:11:09.562Z,4664.00
2018-05-21T05:12:09.463Z,4524.00
2018-05-21T05:13:09.450Z,4360.00
2018-05-21T05:14:09.297Z,4232.00
2018-05-21T05:15:09.307Z,4148.00
2018-05-21T05:16:09.149Z,4132.00
2018-05-21T05:17:09.087Z,4188.00
2018-05-21T05:18:08.986Z,4272.00
2018-05-21T05:19:09.010Z,4316.00
2018-05-21T05:22:49.099Z,4124.00
2018-05-21T05:23:48.966Z,4096.00
2018-05-21T05:24:48.975Z,4152.00
2018-05-21T05:25:48.835Z,4304.00
2018-05-21T05:26:48.855Z,4516.00
2018-05-21T05:27:48.637Z,4764.00
2018-05-21T05:28:48.703Z,5064.00
2018-05-21T05:29:48.486Z,5396.00
2018-05-21T05:30:48.527Z,5712.00
2018-05-21T05:31:48.332Z,6024.00
2018-05-21T05:32:48.308Z,6292.00
2018-05-21T05:33:48.172Z,6488.00
2018-05-21T05:34:48.217Z,6596.00
2018-05-21T05:35:48.032Z,6556.00
2018-05-21T05:36:48.056Z,6308.00
2018-05-21T05:37:47.867Z,6004.00
2018-05-21T05:38:47.838Z,5764.00
2018-05-21T05:39:47.702Z,5616.00
2018-05-21T05:40:47.691Z,5568.00
2018-05-21T05:41:47.570Z,5548.00
2018-05-21T05:44:29.541Z,5484.00
2018-05-21T05:45:29.547Z,5492.00
2018-05-21T05:46:29.403Z,5500.00
2018-05-21T05:50:44.551Z,5780.00
2018-05-21T05:52:06.627Z,5892.00
2018-05-21T05:52:44.448Z,6008.00
2018-05-21T05:53:44.315Z,6056.00
2018-05-21T05:54:44.356Z,6048.00
2018-05-21T05:55:44.153Z,6052.00
2018-05-21T05:56:44.101Z,6044.00
2018-05-21T05:57:44.008Z,6088.00
2018-05-21T05:58:43.928Z,6204.00
2018-05-21T05:59:43.839Z,6336.00
2018-05-21T06:00:43.774Z,6428.00
2018-05-21T06:01:43.682Z,6556.00
2018-05-21T06:02:44.628Z,6648.00
2018-05-21T06:03:43.521Z,6716.00
2018-05-21T06:04:43.463Z,6828.00
2018-05-21T06:05:43.367Z,6864.00
2018-05-21T06:06:43.290Z,6852.00
2018-05-21T06:07:43.234Z,6884.00
2018-05-21T06:08:43.141Z,6988.00
2018-05-21T06:09:43.055Z,7192.00
2018-05-21T06:10:42.980Z,7180.00
2018-05-21T06:11:42.898Z,7060.00
2018-05-21T06:12:42.984Z,7032.00
2018-05-21T06:13:42.757Z,7068.00
2018-05-21T06:16:25.047Z,7732.00
2018-05-21T06:17:24.989Z,8424.00
2018-05-21T06:18:24.914Z,8808.00
2018-05-21T06:19:24.835Z,8656.00
2018-05-21T06:20:24.734Z,8900.00
2018-05-21T06:21:24.673Z,9328.00
2018-05-21T06:22:24.582Z,8880.00
2018-05-21T06:23:24.534Z,8152.00
2018-05-21T06:24:24.433Z,7736.00
2018-05-21T06:25:24.352Z,7540.00
2018-05-21T06:26:24.277Z,7444.00
2018-05-21T06:27:24.208Z,7264.00
2018-05-21T06:28:24.142Z,7440.00
2018-05-21T06:29:24.062Z,7860.00
2018-05-21T06:30:23.959Z,9704.00
2018-05-21T06:31:23.890Z,9128.00
2018-05-21T06:32:23.819Z,8704.00
2018-05-21T06:33:23.759Z,8768.00
2018-05-21T06:34:23.688Z,9000.00
2018-05-21T06:35:23.576Z,9068.00
2018-05-21T06:36:23.496Z,9044.00
2018-05-21T06:37:23.437Z,9412.00
2018-05-21T06:38:23.339Z,9780.00
2018-05-21T06:39:23.288Z,10328.00
2018-05-21T06:40:23.193Z,10624.00
2018-05-21T06:43:05.056Z,11860.00
2018-05-21T06:44:06.012Z,12044.00
2018-05-21T06:45:04.908Z,13184.00
2018-05-21T06:46:04.927Z,14108.00
2018-05-21T06:47:04.759Z,15360.00
2018-05-21T06:48:04.683Z,14696.00
2018-05-21T06:49:04.616Z,13668.00
2018-05-21T06:50:04.525Z,12904.00
2018-05-21T06:51:04.449Z,11344.00
2018-05-21T06:52:04.372Z,12380.00
2018-05-21T06:53:04.300Z,12148.00
2018-05-21T06:54:04.236Z,10276.00
2018-05-21T06:55:04.281Z,10432.00
2018-05-21T06:56:04.079Z,11024.00
2018-05-21T06:57:03.983Z,11000.00
2018-05-21T06:58:03.928Z,14264.00
2018-05-21T07:11:28.070Z,26560.00
2018-05-21T07:12:26.972Z,21888.00
2018-05-21T07:13:26.923Z,18688.00
2018-05-21T07:14:26.827Z,17792.00
2018-05-21T07:15:27.777Z,17824.00
2018-05-21T07:16:26.679Z,14220.00
2018-05-21T07:17:26.618Z,13696.00
2018-05-21T07:18:26.541Z,15180.00
2018-05-21T07:19:26.474Z,16896.00
2018-05-21T07:20:26.440Z,17184.00
2018-05-21T07:21:26.332Z,19680.00
2018-05-21T07:22:26.241Z,16512.00
2018-05-21T07:23:26.203Z,15284.00
2018-05-21T07:24:26.147Z,22976.00
2018-05-21T07:25:26.082Z,24832.00
2018-05-21T07:26:25.982Z,23520.00
2018-05-21T07:27:25.892Z,22112.00
2018-05-21T07:28:25.828Z,23104.00
2018-05-21T07:29:25.746Z,31488.00
2018-05-21T07:30:25.690Z,34688.00
2018-05-21T07:31:25.671Z,28896.00
2018-05-21T07:32:25.519Z,21056.00
2018-05-21T07:33:25.465Z,24576.00
2018-05-21T07:34:25.402Z,31200.00
2018-05-21T07:35:25.315Z,28320.00
2018-05-21T07:36:25.241Z,29152.00
2018-05-21T07:37:25.181Z,24448.00
2018-05-21T07:38:25.084Z,19296.00
2018-05-21T07:39:25.027Z,19328.00
2018-05-21T07:40:24.948Z,20864.00
2018-05-21T07:41:24.891Z,23904.00
2018-05-21T07:42:24.831Z,23648.00
2018-05-21T07:43:24.727Z,26208.00
2018-05-21T07:44:24.649Z,24192.00
2018-05-21T07:45:24.591Z,21824.00
2018-05-21T07:46:24.529Z,26592.00
2018-05-21T07:47:24.461Z,30976.00
2018-05-21T07:48:24.365Z,32832.00
2018-05-21T07:49:24.310Z,27232.00
2018-05-21T07:50:24.235Z,21056.00
2018-05-21T07:51:24.197Z,22496.00
2018-05-21T07:52:24.094Z,25472.00
2018-05-21T07:53:24.016Z,37344.00
2018-05-21T07:54:23.936Z,40384.00
2018-05-21T07:55:23.897Z,47008.00
2018-05-21T07:56:23.791Z,43552.00
2018-05-21T07:57:23.747Z,48608.00
2018-05-21T07:58:23.664Z,45216.00
2018-05-21T07:59:23.620Z,44512.00
2018-05-21T08:00:23.514Z,46144.00
2018-05-21T08:03:05.605Z,39008.00
2018-05-21T08:04:05.545Z,47040.00
2018-05-21T08:05:05.456Z,46848.00
2018-05-21T08:06:05.392Z,46176.00
2018-05-21T08:07:05.344Z,45024.00
2018-05-21T08:08:05.261Z,46016.00
2018-05-21T08:09:05.182Z,41824.00
2018-05-21T08:10:05.125Z,50976.00
2018-05-21T08:11:05.042Z,53344.00
2018-05-21T08:12:04.997Z,50368.00
2018-05-21T08:13:04.914Z,53024.00
2018-05-21T08:14:04.867Z,53888.00
2018-05-21T08:15:04.777Z,56384.00
2018-05-21T08:17:47.148Z,56288.00
2018-05-21T08:18:47.041Z,56256.00
2018-05-21T08:19:46.968Z,51488.00
2018-05-21T08:20:46.907Z,58176.00
2018-05-21T08:21:46.831Z,56608.00
2018-05-21T08:22:46.789Z,55808.00
2018-05-21T08:23:46.697Z,54848.00
2018-05-21T08:26:28.612Z,53472.00
2018-05-21T08:27:28.557Z,55360.00
2018-05-21T08:28:28.489Z,56704.00
2018-05-21T08:29:28.417Z,57184.00
2018-05-21T08:30:28.343Z,57952.00
2018-05-21T08:31:28.279Z,58336.00
2018-05-21T08:32:28.213Z,58176.00
2018-05-21T08:33:28.164Z,59104.00
2018-05-21T08:34:28.068Z,60672.00
2018-05-21T08:35:28.022Z,59680.00
2018-05-21T08:36:27.948Z,60256.00
2018-05-21T08:37:27.884Z,60800.00
2018-05-21T08:38:27.852Z,61216.00
2018-05-21T08:39:27.831Z,62400.00
2018-05-21T08:40:27.698Z,63232.00
2018-05-21T08:41:27.649Z,64384.00
2018-05-21T08:42:27.546Z,65568.00
2018-05-21T08:43:27.556Z,65440.00
2018-05-21T08:44:27.512Z,64768.00
2018-05-21T08:45:27.474Z,63968.00
2018-05-21T08:46:27.391Z,63360.00
2018-05-21T08:47:27.363Z,63232.00
2018-05-21T08:48:27.224Z,62912.00
2018-05-21T08:49:27.213Z,63392.00
2018-05-21T08:50:27.046Z,63456.00
2018-05-21T08:51:26.998Z,63776.00
2018-05-21T08:52:26.939Z,64032.00
2018-05-21T08:53:26.906Z,64288.00
2018-05-21T08:54:26.778Z,63712.00
2018-05-21T08:55:26.824Z,64448.00
2018-05-21T08:56:26.665Z,64416.00
2018-05-21T08:57:26.621Z,65952.00
2018-05-21T08:58:26.514Z,65216.00
2018-05-21T08:59:26.460Z,64960.00
2018-05-21T09:00:26.398Z,66272.00
2018-05-21T09:01:26.346Z,66976.00
2018-05-21T09:02:26.246Z,70048.00
2018-05-21T09:03:26.191Z,69856.00
2018-05-21T09:04:26.139Z,71776.00
2018-05-21T09:05:26.078Z,73408.00
2018-05-21T09:06:25.992Z,64352.00
2018-05-21T09:07:25.953Z,72640.00
2018-05-21T09:08:25.866Z,71296.00
2018-05-21T09:09:25.917Z,71104.00
2018-05-21T09:10:25.730Z,72384.00
2018-05-21T09:11:25.793Z,74176.00
2018-05-21T09:12:25.631Z,71328.00
2018-05-21T09:13:25.608Z,71200.00
2018-05-21T09:14:25.500Z,70624.00
2018-05-21T09:15:25.515Z,72320.00
2018-05-21T09:16:25.464Z,73632.00
2018-05-21T09:17:25.324Z,72352.00
2018-05-21T09:18:25.216Z,73568.00
2018-05-21T09:19:25.267Z,74176.00
2018-05-21T09:20:25.097Z,75168.00
2018-05-21T09:21:25.083Z,74144.00
2018-05-21T09:22:24.961Z,74656.00
2018-05-21T09:23:24.953Z,76256.00
2018-05-21T09:24:24.826Z,75328.00
2018-05-21T09:25:24.898Z,76704.00
2018-05-21T09:26:24.703Z,76320.00
2018-05-21T09:27:24.642Z,75776.00
2018-05-21T09:28:24.577Z,75488.00
2018-05-21T09:29:24.585Z,74624.00
2018-05-21T09:30:24.499Z,74624.00
2018-05-21T09:31:24.582Z,75360.00
2018-05-21T09:32:24.359Z,73888.00
2018-05-21T09:33:24.305Z,75424.00
2018-05-21T09:34:24.188Z,79712.00
2018-05-21T09:35:24.212Z,78144.00
2018-05-21T09:36:24.083Z,80320.00
2018-05-21T09:37:24.030Z,80832.00
2018-05-21T09:38:23.933Z,80096.00
2018-05-21T09:39:23.928Z,69504.00
2018-05-21T09:40:23.802Z,82720.00
2018-05-21T09:41:23.877Z,82240.00
2018-05-21T09:42:23.670Z,80192.00
2018-05-21T09:43:23.665Z,79328.00
2018-05-21T09:44:23.543Z,81792.00
2018-05-21T09:45:23.563Z,80064.00
2018-05-21T09:46:23.420Z,80288.00
2018-05-21T09:47:23.373Z,81952.00
2018-05-21T09:48:23.273Z,84640.00
2018-05-21T09:49:23.293Z,83520.00
2018-05-21T09:50:23.136Z,84448.00
2018-05-21T09:51:23.117Z,83936.00
2018-05-21T09:52:23.004Z,82304.00
2018-05-21T09:53:23.000Z,79040.00
2018-05-21T09:54:22.876Z,80768.00
2018-05-21T09:55:22.923Z,80992.00
2018-05-21T09:56:22.757Z,82912.00
2018-05-21T09:57:22.721Z,82624.00
2018-05-21T09:58:22.626Z,82208.00
2018-05-21T09:59:22.634Z,81760.00
2018-05-21T10:00:22.484Z,80768.00
2018-05-21T10:01:22.464Z,84128.00
2018-05-21T10:02:22.370Z,84448.00
2018-05-21T10:03:22.361Z,85760.00
2018-05-21T10:04:22.238Z,88192.00
2018-05-21T10:05:22.256Z,89952.00
2018-05-21T10:06:22.100Z,89184.00
2018-05-21T10:07:22.091Z,85440.00
2018-05-21T10:08:21.962Z,84832.00
2018-05-21T10:09:21.979Z,87872.00
2018-05-21T10:10:21.823Z,88768.00
2018-05-21T10:11:21.781Z,88416.00
2018-05-21T10:12:21.733Z,87552.00
2018-05-21T10:13:21.698Z,88320.00
2018-05-21T10:14:21.566Z,89216.00
2018-05-21T10:15:21.606Z,88224.00
2018-05-21T10:16:21.443Z,87936.00
2018-05-21T10:17:21.471Z,85856.00
2018-05-21T10:18:21.312Z,91200.00
2018-05-21T10:19:21.371Z,89728.00
2018-05-21T10:20:21.172Z,91136.00
2018-05-21T10:21:21.240Z,91712.00
2018-05-21T10:22:21.079Z,92896.00
2018-05-21T10:23:21.050Z,92768.00
2018-05-21T10:24:20.957Z,91744.00
2018-05-21T10:25:20.967Z,93952.00
2018-05-21T10:26:20.779Z,94816.00
2018-05-21T10:27:20.821Z,93792.00
2018-05-21T10:28:20.672Z,90720.00
2018-05-21T10:29:20.680Z,89472.00
2018-05-21T10:30:20.531Z,81984.00
2018-05-21T10:31:20.494Z,83648.00
2018-05-21T10:32:20.388Z,81024.00
2018-05-21T10:33:20.360Z,82976.00
2018-05-21T10:34:20.261Z,85120.00
2018-05-21T10:35:20.316Z,84608.00
2018-05-21T10:36:20.223Z,84032.00
2018-05-21T10:37:20.233Z,87264.00
2018-05-21T10:38:20.016Z,89920.00
2018-05-21T10:39:20.081Z,86144.00
2018-05-21T10:40:19.894Z,88480.00
2018-05-21T10:41:19.948Z,83584.00
2018-05-21T10:42:19.751Z,77504.00
2018-05-21T10:43:19.731Z,80928.00
2018-05-21T10:44:19.624Z,83040.00
2018-05-21T10:45:19.566Z,85216.00
2018-05-21T10:46:19.495Z,86848.00
2018-05-21T10:47:19.432Z,93344.00
2018-05-21T10:48:19.378Z,94976.00
2018-05-21T10:49:19.301Z,99840.00
2018-05-21T10:50:19.228Z,99744.00
2018-05-21T10:51:19.228Z,100032.00
2018-05-21T10:52:19.106Z,98720.00
2018-05-21T10:53:20.078Z,78944.00
2018-05-21T10:54:19.002Z,64352.00
2018-05-21T10:57:01.158Z,99104.00
2018-05-21T10:59:43.191Z,101216.00
2018-05-21T11:02:25.154Z,97600.00
2018-05-21T11:05:07.193Z,100768.00
2018-05-21T11:09:03.194Z,94240.00
2018-05-21T11:10:03.103Z,96064.00
2018-05-21T11:11:03.049Z,98560.00
2018-05-21T11:28:04.935Z,102656.00
2018-05-21T11:29:04.858Z,101824.00
2018-05-21T11:31:46.703Z,107040.00
2018-05-21T11:34:28.686Z,100832.00
2018-05-21T11:35:29.639Z,102816.00
2018-05-21T11:36:28.540Z,99264.00
2018-05-21T11:39:10.679Z,105760.00
2018-05-21T11:40:10.613Z,106656.00
2018-05-21T11:41:10.562Z,94208.00
2018-05-21T11:43:52.670Z,105504.00
2018-05-21T11:44:52.612Z,79296.00
2018-05-21T11:45:52.572Z,103584.00
2018-05-21T12:13:33.733Z,10216.00
2018-05-21T12:14:33.647Z,9708.00
2018-05-21T12:15:33.542Z,9544.00
2018-05-21T12:18:15.713Z,9420.00
2018-05-21T12:19:15.620Z,9460.00
2018-05-21T12:20:15.554Z,9568.00
2018-05-21T12:21:15.469Z,9648.00
2018-05-21T12:22:15.463Z,9620.00
2018-05-21T12:23:16.364Z,9580.00
2018-05-21T12:24:15.253Z,9548.00
2018-05-21T12:25:15.191Z,9512.00
2018-05-21T12:26:15.127Z,9464.00
2018-05-21T12:27:15.047Z,9532.00
2018-05-21T12:28:14.976Z,9732.00
2018-05-21T12:29:15.937Z,9772.00
2018-05-21T12:30:14.828Z,9604.00
2018-05-21T12:31:14.758Z,9492.00
2018-05-21T12:32:14.680Z,9580.00
2018-05-21T12:33:14.612Z,10032.00
2018-05-21T12:34:14.553Z,10280.00
2018-05-21T12:35:14.478Z,10480.00
2018-05-21T12:36:14.390Z,9784.00
2018-05-21T12:37:14.327Z,8772.00
2018-05-21T12:38:14.358Z,8292.00
2018-05-21T12:40:56.456Z,8540.00
2018-05-21T12:41:56.375Z,8592.00
2018-05-21T12:46:37.375Z,7768.00
2018-05-21T12:47:37.286Z,7848.00
2018-05-21T12:50:19.215Z,9128.00
2018-05-21T12:51:19.152Z,9080.00
2018-05-21T12:52:19.059Z,8732.00
2018-05-21T12:53:18.991Z,8156.00
2018-05-21T12:54:18.906Z,8136.00
2018-05-21T12:55:18.875Z,8248.00
2018-05-21T12:56:18.782Z,8660.00
2018-05-21T12:57:18.708Z,9084.00
2018-05-21T12:58:18.628Z,9600.00
2018-05-21T12:59:18.564Z,9852.00
2018-05-21T13:00:18.504Z,10156.00
2018-05-21T13:03:00.702Z,9772.00
2018-05-21T13:04:00.633Z,9812.00
2018-05-21T13:05:00.576Z,9424.00
2018-05-21T13:06:00.497Z,8800.00
2018-05-21T13:07:00.411Z,8660.00
2018-05-21T13:08:00.353Z,8968.00
2018-05-21T13:09:00.272Z,8796.00
2018-05-21T13:10:01.219Z,8372.00
2018-05-21T13:11:00.133Z,8088.00
2018-05-21T13:12:00.138Z,7744.00
2018-05-21T13:12:59.983Z,7632.00
2018-05-21T13:13:59.924Z,8120.00
2018-05-21T13:14:59.827Z,8600.00
2018-05-21T13:15:59.762Z,8796.00
2018-05-21T13:16:59.706Z,8800.00
2018-05-21T13:19:41.711Z,8704.00
2018-05-21T13:20:42.657Z,8936.00
2018-05-21T13:21:41.580Z,9396.00
2018-05-21T13:22:41.520Z,10012.00
2018-05-21T13:23:41.477Z,10280.00
2018-05-21T13:24:41.355Z,10604.00
2018-05-21T13:25:41.266Z,10644.00
2018-05-21T13:26:41.229Z,10504.00
2018-05-21T13:27:41.128Z,10308.00
2018-05-21T13:28:41.063Z,10100.00
2018-05-21T13:29:40.982Z,9652.00
2018-05-21T13:32:23.276Z,9532.00
2018-05-21T13:33:23.258Z,9560.00
2018-05-21T13:34:23.077Z,9560.00
2018-05-21T13:35:23.001Z,9460.00
2018-05-21T13:36:22.931Z,9416.00
2018-05-21T13:37:22.906Z,9352.00
2018-05-21T13:38:22.774Z,9432.00
2018-05-21T13:39:22.713Z,9440.00
2018-05-21T13:40:22.639Z,9336.00
2018-05-21T13:41:22.559Z,9208.00
2018-05-21T13:42:22.519Z,9164.00
2018-05-21T13:43:22.424Z,9136.00
2018-05-21T13:44:22.342Z,9300.00
2018-05-21T13:45:22.277Z,9284.00
2018-05-21T13:46:22.196Z,9416.00
2018-05-21T13:47:22.161Z,9328.00
2018-05-21T13:48:22.045Z,9524.00
2018-05-21T13:49:21.982Z,9536.00
2018-05-21T13:50:21.898Z,9712.00
2018-05-21T13:53:04.244Z,9676.00
2018-05-21T13:54:04.153Z,9684.00
2018-05-21T13:55:04.108Z,9716.00
2018-05-21T13:57:46.294Z,9572.00
2018-05-21T14:00:28.235Z,9416.00
2018-05-21T14:01:28.175Z,9432.00
2018-05-21T14:02:28.080Z,9244.00
2018-05-21T14:03:28.072Z,8864.00
2018-05-21T14:04:27.936Z,8564.00
2018-05-21T14:05:27.867Z,8400.00
2018-05-21T14:06:27.795Z,8352.00
2018-05-21T14:07:27.715Z,8208.00
2018-05-21T14:08:27.667Z,8160.00
2018-05-21T14:09:27.690Z,8056.00
2018-05-21T14:10:27.492Z,7976.00
2018-05-21T14:11:27.465Z,8068.00
2018-05-21T14:12:27.361Z,8184.00
2018-05-21T14:13:27.431Z,8380.00
2018-05-21T14:14:27.207Z,8420.00
2018-05-21T14:15:27.193Z,8512.00
2018-05-21T14:16:27.077Z,8468.00
2018-05-21T14:17:27.102Z,8384.00
2018-05-21T14:18:26.938Z,8444.00
2018-05-21T14:19:27.972Z,8312.00
2018-05-21T14:20:26.910Z,8148.00
2018-05-21T14:21:26.826Z,8128.00
2018-05-21T14:22:26.635Z,8164.00
2018-05-21T14:23:26.637Z,8228.00
2018-05-21T14:24:26.520Z,8108.00
2018-05-21T14:25:26.465Z,7872.00
2018-05-21T14:26:26.331Z,7664.00
2018-05-21T14:27:26.278Z,7568.00
2018-05-21T14:28:26.194Z,7632.00
2018-05-21T14:29:26.206Z,7596.00
2018-05-21T14:30:26.054Z,7628.00
2018-05-21T14:31:25.986Z,7648.00
2018-05-21T14:32:25.913Z,7784.00
2018-05-21T14:33:25.846Z,7836.00
2018-05-21T14:34:25.782Z,7840.00
2018-05-21T14:35:25.693Z,7892.00